Portada
METAR-TAF:

METAR-TAF

Aeroports :

Malakula, Vanuatu

latitud: 16-27-26S, longitud: 167-49-42E, altitud: 2 m

METAR: manca

Hora: 19:42 (08:42 UTC)

Pronòstic

L'informe es va fer fa 3 hores i 42 minuts, a les 05:00 UTC
Pronòstic vàlid del 29 a les 06 UTC al 30 a les 06 UTC
Vent 13 kt del Est/Sud-Est
Visibilitat 10 km o més
Núvols disperses a una alçada de 2000 ft
Cel ennuvolat a una alçada de 4000 ft
Probabilitat 40%
entre IN i TE UTC
Visibilitat: 9000 m
Escasses núvols a una alçada de 1500 ft
Cel ennuvolat a una alçada de 1800 ft
xàfecs de pluja,

TAF: NVSL 290500Z 2906/3006 12013KT 9999 SCT020 BKN040 PROB40 INTER 2906/2912 9000 SHRA FEW015 BKN018

Observacions i pronòstics meteorològics de més de 4000 aeroports (METAR i TAF).

Les estacions disponibles són els punts grocs i vermells al mapa.

Posi el ratolí al punt desitjat per veure el nom de l'estació.

Feu clic per veure les observacions i els pronòstics meteorològics.

Per canviar el mapa: feu clic els botons verds amb una creu de color negre per apropar; al botó verd amb un guió per allunyar la imatge; o en les fletxes verdes per a mapes adjacents.


METAR-TAF: